Thursday, August 16, 2018, 12:00 AM EDT
Back to Local

KCAK, Akron-canton Regional Airport

Location: Canton, OH, United States Lat: 40.917
Local Time: 12:00 AM EDT ( 4:00 GMT) Lon: -81.45
Time Zone: US/Eastern Elev: 1227 ft

Show me the last for .
Show Decoded

2018-08-15 22:51 METAR KCAK 160251Z 19004KT 10SM OVC180 24/19 A3007 RMK AO2 SLP171 T02440189
                 53004 =
2018-08-15 21:51 METAR KCAK 160151Z 22003KT 10SM OVC180 25/18 A3006 RMK AO2 SLP169 T02500183 =
2018-08-15 20:51 METAR KCAK 160051Z 22005KT 10SM OVC200 26/18 A3005 RMK AO2 SLP167 T02560183 =
2018-08-15 19:51 METAR KCAK 152351Z 23006KT 10SM FEW050 OVC230 27/18 A3005 RMK AO2 SLP168
                 T02720183 10317 20272 53002 =
2018-08-15 18:51 METAR KCAK 152251Z 23006KT 10SM SCT050 OVC230 28/19 A3004 RMK AO2 SLP164
                 T02830189 =
2018-08-15 17:51 METAR KCAK 152151Z 24006KT 10SM SCT048 BKN070 OVC250 29/18 A3004 RMK AO2 SLP162
                 T02940178 =
2018-08-15 16:51 METAR KCAK 152051Z 23007KT 10SM SCT046 BKN250 31/17 A3005 RMK AO2 SLP164
                 T03110167 58008 =
2018-08-15 15:51 METAR KCAK 151951Z 28008KT 10SM SCT044 BKN250 31/16 A3006 RMK AO2 SLP169
                 T03060161 =
2018-08-15 14:51 METAR KCAK 151851Z 28008KT 10SM SCT042 BKN250 30/18 A3006 RMK AO2 SLP171
                 T03000178 =
2018-08-15 13:51 METAR KCAK 151751Z VRB06KT 10SM SCT040 BKN250 30/18 A3007 RMK AO2 SLP174
                 T03000183 10306 20206 55002 =
2018-08-15 12:51 METAR KCAK 151651Z 26008KT 10SM SCT038 BKN250 29/18 A3007 RMK AO2 SLP173
                 T02890178 =
2018-08-15 11:51 METAR KCAK 151551Z 27007KT 240V300 8SM SCT042 BKN250 28/19 A3008 RMK AO2 SLP175
                 T02830189 =
2018-08-15 10:51 METAR KCAK 151451Z 26006KT 8SM FEW038 BKN250 26/19 A3008 RMK AO2 SLP176
                 T02610189 51008 =
2018-08-15 09:51 METAR KCAK 151351Z 28005KT 7SM SCT250 26/19 A3007 RMK AO2 SLP175 T02560189 =
2018-08-15 08:51 METAR KCAK 151251Z 27004KT 6SM HZ FEW250 23/18 A3007 RMK AO2 SLP174 T02280183 =
2018-08-15 07:51 METAR KCAK 151151Z 23003KT 5SM HZ FEW250 21/18 A3005 RMK AO2 SLP168 T02060178
                 10206 20183 53009 =
2018-08-15 06:51 METAR KCAK 151051Z 25003KT 5SM BR FEW250 19/17 A3004 RMK AO2 SLP165 T01940172 =
2018-08-15 05:51 METAR KCAK 150951Z 25003KT 7SM FEW050 19/17 A3003 RMK AO2 SLP159 T01890167 =
2018-08-15 04:51 METAR KCAK 150851Z 23004KT 8SM FEW050 19/17 A3002 RMK AO2 SLP157 T01940167 53004
                 =
2018-08-15 03:51 METAR KCAK 150751Z 24004KT 10SM CLR 19/17 A3002 RMK AO2 SLP154 T01940167 =
2018-08-15 02:51 METAR KCAK 150651Z 23004KT 10SM CLR 20/17 A3001 RMK AO2 SLP152 T02000167 =
2018-08-15 01:51 METAR KCAK 150551Z 24004KT 9SM CLR 20/17 A3001 RMK AO2 SLP154 T02000167 10267
                 20194 50000 =
2018-08-15 00:51 METAR KCAK 150451Z 24005KT 10SM CLR 21/17 A3002 RMK AO2 SLP156 T02060172
                 403060178 =

Support USWX by starting your Amazon purchase here.